sensor_id;sensor_type;location;lat;lon;timestamp;pressure;altitude;pressure_sealevel;temperature;humidity
14232;BME280;7200;52.194;9.900;2023-03-01T00:01:12;101569.66;;;-0.21;100.00
14232;BME280;7200;52.194;9.900;2023-03-01T00:03:38;101540.00;;;-0.30;100.00
14232;BME280;7200;52.194;9.900;2023-03-01T00:06:04;101542.53;;;-0.33;100.00
14232;BME280;7200;52.194;9.900;2023-03-01T00:08:30;101526.78;;;-0.41;100.00
14232;BME280;7200;52.194;9.900;2023-03-01T00:11:12;101513.50;;;-0.52;100.00
14232;BME280;7200;52.194;9.900;2023-03-01T00:13:37;101503.03;;;-0.56;100.00
14232;BME280;7200;52.194;9.900;2023-03-01T00:16:04;101545.69;;;-0.45;100.00
14232;BME280;7200;52.194;9.900;2023-03-01T00:18:30;101565.91;;;-0.32;100.00
14232;BME280;7200;52.194;9.900;2023-03-01T00:20:55;101547.66;;;-0.35;100.00
14232;BME280;7200;52.194;9.900;2023-03-01T00:23:21;101541.50;;;-0.38;100.00
14232;BME280;7200;52.194;9.900;2023-03-01T00:25:47;101475.97;;;-0.68;100.00
14232;BME280;7200;52.194;9.900;2023-03-01T00:28:13;101478.31;;;-0.77;100.00
14232;BME280;7200;52.194;9.900;2023-03-01T00:30:38;101485.94;;;-0.82;100.00
14232;BME280;7200;52.194;9.900;2023-03-01T00:33:04;101522.47;;;-0.72;100.00
14232;BME280;7200;52.194;9.900;2023-03-01T00:35:29;101477.91;;;-0.91;100.00
14232;BME280;7200;52.194;9.900;2023-03-01T00:37:58;101513.44;;;-0.87;100.00
14232;BME280;7200;52.194;9.900;2023-03-01T00:40:25;101531.91;;;-0.74;100.00
14232;BME280;7200;52.194;9.900;2023-03-01T00:42:50;101515.34;;;-0.80;100.00
14232;BME280;7200;52.194;9.900;2023-03-01T00:45:15;101498.91;;;-0.82;100.00
14232;BME280;7200;52.194;9.900;2023-03-01T00:47:41;101475.25;;;-0.94;100.00
14232;BME280;7200;52.194;9.900;2023-03-01T00:50:06;101491.56;;;-0.96;100.00
14232;BME280;7200;52.194;9.900;2023-03-01T00:52:32;101479.34;;;-1.02;100.00
14232;BME280;7200;52.194;9.900;2023-03-01T00:54:57;101487.06;;;-1.04;100.00
14232;BME280;7200;52.194;9.900;2023-03-01T00:57:23;101490.50;;;-1.05;100.00
14232;BME280;7200;52.194;9.900;2023-03-01T00:59:49;101520.13;;;-0.95;100.00
14232;BME280;7200;52.194;9.900;2023-03-01T01:02:14;101501.88;;;-0.98;100.00
14232;BME280;7200;52.194;9.900;2023-03-01T01:04:40;101477.34;;;-1.12;100.00
14232;BME280;7200;52.194;9.900;2023-03-01T01:07:05;101452.41;;;-1.39;100.00
14232;BME280;7200;52.194;9.900;2023-03-01T01:09:30;101452.16;;;-1.48;100.00
14232;BME280;7200;52.194;9.900;2023-03-01T01:11:56;101496.53;;;-1.34;100.00
14232;BME280;7200;52.194;9.900;2023-03-01T01:14:21;101511.16;;;-1.37;100.00
14232;BME280;7200;52.194;9.900;2023-03-01T01:16:46;101470.13;;;-1.53;100.00
14232;BME280;7200;52.194;9.900;2023-03-01T01:19:12;101490.81;;;-1.53;100.00
14232;BME280;7200;52.194;9.900;2023-03-01T01:21:38;101501.38;;;-1.47;100.00
14232;BME280;7200;52.194;9.900;2023-03-01T01:24:04;101499.50;;;-1.51;100.00
14232;BME280;7200;52.194;9.900;2023-03-01T01:26:32;101470.47;;;-1.71;100.00
14232;BME280;7200;52.194;9.900;2023-03-01T01:28:59;101500.81;;;-1.65;100.00
14232;BME280;7200;52.194;9.900;2023-03-01T01:31:26;101527.09;;;-1.51;100.00
14232;BME280;7200;52.194;9.900;2023-03-01T01:33:52;101554.53;;;-1.29;100.00
14232;BME280;7200;52.194;9.900;2023-03-01T01:36:18;101557.38;;;-1.20;100.00
14232;BME280;7200;52.194;9.900;2023-03-01T01:38:44;101565.44;;;-1.09;100.00
14232;BME280;7200;52.194;9.900;2023-03-01T01:41:10;101523.72;;;-1.20;100.00
14232;BME280;7200;52.194;9.900;2023-03-01T01:43:39;101480.16;;;-1.35;100.00
14232;BME280;7200;52.194;9.900;2023-03-01T01:48:53;101479.38;;;-1.61;100.00
14232;BME280;7200;52.194;9.900;2023-03-01T01:51:23;101545.72;;;-1.34;100.00
14232;BME280;7200;52.194;9.900;2023-03-01T01:53:55;101524.19;;;-1.33;100.00
14232;BME280;7200;52.194;9.900;2023-03-01T01:56:21;101490.06;;;-1.49;100.00
14232;BME280;7200;52.194;9.900;2023-03-01T01:58:48;101508.34;;;-1.44;100.00
14232;BME280;7200;52.194;9.900;2023-03-01T02:01:14;101510.09;;;-1.43;100.00
14232;BME280;7200;52.194;9.900;2023-03-01T02:03:42;101518.09;;;-1.35;100.00
14232;BME280;7200;52.194;9.900;2023-03-01T02:06:22;101523.31;;;-1.34;100.00
14232;BME280;7200;52.194;9.900;2023-03-01T02:08:54;101495.44;;;-1.43;100.00
14232;BME280;7200;52.194;9.900;2023-03-01T02:11:22;101425.41;;;-1.78;100.00
14232;BME280;7200;52.194;9.900;2023-03-01T02:13:48;101490.53;;;-1.62;100.00
14232;BME280;7200;52.194;9.900;2023-03-01T02:16:15;101428.69;;;-1.83;100.00
14232;BME280;7200;52.194;9.900;2023-03-01T02:18:41;101414.19;;;-2.07;100.00
14232;BME280;7200;52.194;9.900;2023-03-01T02:21:19;101433.03;;;-2.11;100.00
14232;BME280;7200;52.194;9.900;2023-03-01T02:23:46;101434.41;;;-2.21;100.00
14232;BME280;7200;52.194;9.900;2023-03-01T02:26:45;101458.66;;;-2.17;100.00
14232;BME280;7200;52.194;9.900;2023-03-01T02:29:11;101443.78;;;-2.24;100.00
14232;BME280;7200;52.194;9.900;2023-03-01T02:31:37;101488.94;;;-2.13;100.00
14232;BME280;7200;52.194;9.900;2023-03-01T02:34:14;101484.75;;;-2.11;100.00
14232;BME280;7200;52.194;9.900;2023-03-01T02:36:45;101482.84;;;-2.15;100.00
14232;BME280;7200;52.194;9.900;2023-03-01T02:39:15;101487.22;;;-2.14;100.00
14232;BME280;7200;52.194;9.900;2023-03-01T02:41:48;101511.53;;;-2.09;100.00
14232;BME280;7200;52.194;9.900;2023-03-01T02:44:15;101522.09;;;-2.01;100.00
14232;BME280;7200;52.194;9.900;2023-03-01T02:46:47;101491.47;;;-2.16;100.00
14232;BME280;7200;52.194;9.900;2023-03-01T02:49:28;101532.41;;;-2.03;100.00
14232;BME280;7200;52.194;9.900;2023-03-01T02:55:07;101508.09;;;-2.08;100.00
14232;BME280;7200;52.194;9.900;2023-03-01T02:57:35;101531.72;;;-1.97;100.00
14232;BME280;7200;52.194;9.900;2023-03-01T03:00:05;101559.84;;;-1.81;100.00
14232;BME280;7200;52.194;9.900;2023-03-01T03:02:32;101564.56;;;-1.67;100.00
14232;BME280;7200;52.194;9.900;2023-03-01T03:05:08;101554.53;;;-1.57;100.00
14232;BME280;7200;52.194;9.900;2023-03-01T03:07:35;101476.03;;;-1.86;100.00
14232;BME280;7200;52.194;9.900;2023-03-01T03:10:03;101445.41;;;-2.01;100.00
14232;BME280;7200;52.194;9.900;2023-03-01T03:12:28;101437.50;;;-2.05;100.00
14232;BME280;7200;52.194;9.900;2023-03-01T03:14:53;101452.41;;;-1.97;100.00
14232;BME280;7200;52.194;9.900;2023-03-01T03:17:19;101376.44;;;-2.29;100.00
14232;BME280;7200;52.194;9.900;2023-03-01T03:19:44;101414.47;;;-2.25;100.00
14232;BME280;7200;52.194;9.900;2023-03-01T03:22:11;101440.56;;;-2.17;100.00
14232;BME280;7200;52.194;9.900;2023-03-01T03:24:36;101458.97;;;-2.08;100.00
14232;BME280;7200;52.194;9.900;2023-03-01T03:27:04;101451.25;;;-2.06;100.00
14232;BME280;7200;52.194;9.900;2023-03-01T03:29:30;101425.97;;;-2.15;100.00
14232;BME280;7200;52.194;9.900;2023-03-01T03:31:55;101424.09;;;-2.21;100.00
14232;BME280;7200;52.194;9.900;2023-03-01T03:34:20;101437.97;;;-2.17;100.00
14232;BME280;7200;52.194;9.900;2023-03-01T03:36:45;101475.44;;;-2.04;100.00
14232;BME280;7200;52.194;9.900;2023-03-01T03:39:11;101494.94;;;-1.88;100.00
14232;BME280;7200;52.194;9.900;2023-03-01T03:41:36;101468.81;;;-1.96;100.00
14232;BME280;7200;52.194;9.900;2023-03-01T03:44:01;101500.00;;;-1.91;100.00
14232;BME280;7200;52.194;9.900;2023-03-01T03:46:27;101525.59;;;-1.72;100.00
14232;BME280;7200;52.194;9.900;2023-03-01T03:48:52;101499.56;;;-1.78;100.00
14232;BME280;7200;52.194;9.900;2023-03-01T03:51:17;101495.19;;;-1.79;100.00
14232;BME280;7200;52.194;9.900;2023-03-01T03:53:44;101474.09;;;-1.93;100.00
14232;BME280;7200;52.194;9.900;2023-03-01T03:56:10;101480.06;;;-1.96;100.00
14232;BME280;7200;52.194;9.900;2023-03-01T03:58:36;101441.50;;;-2.15;100.00
14232;BME280;7200;52.194;9.900;2023-03-01T04:01:02;101423.91;;;-2.27;100.00
14232;BME280;7200;52.194;9.900;2023-03-01T04:03:28;101427.28;;;-2.29;100.00
14232;BME280;7200;52.194;9.900;2023-03-01T04:05:57;101372.69;;;-2.66;100.00
14232;BME280;7200;52.194;9.900;2023-03-01T04:08:23;101394.00;;;-2.73;100.00
14232;BME280;7200;52.194;9.900;2023-03-01T04:10:56;101433.03;;;-2.64;100.00
14232;BME280;7200;52.194;9.900;2023-03-01T04:13:22;101463.63;;;-2.50;100.00
14232;BME280;7200;52.194;9.900;2023-03-01T04:15:49;101473.50;;;-2.39;100.00
14232;BME280;7200;52.194;9.900;2023-03-01T04:18:16;101472.81;;;-2.33;100.00
14232;BME280;7200;52.194;9.900;2023-03-01T04:20:43;101468.56;;;-2.31;100.00
14232;BME280;7200;52.194;9.900;2023-03-01T04:25:46;101439.66;;;-2.46;100.00
14232;BME280;7200;52.194;9.900;2023-03-01T04:28:14;101410.66;;;-2.63;100.00
14232;BME280;7200;52.194;9.900;2023-03-01T04:30:40;101393.09;;;-2.74;100.00
14232;BME280;7200;52.194;9.900;2023-03-01T04:33:08;101431.28;;;-2.65;100.00
14232;BME280;7200;52.194;9.900;2023-03-01T04:35:34;101462.00;;;-2.47;100.00
14232;BME280;7200;52.194;9.900;2023-03-01T04:38:00;101470.72;;;-2.43;100.00
14232;BME280;7200;52.194;9.900;2023-03-01T04:40:26;101447.34;;;-2.48;100.00
14232;BME280;7200;52.194;9.900;2023-03-01T04:42:51;101394.03;;;-2.71;100.00
14232;BME280;7200;52.194;9.900;2023-03-01T04:45:17;101430.44;;;-2.64;100.00
14232;BME280;7200;52.194;9.900;2023-03-01T04:47:43;101419.19;;;-2.66;100.00
14232;BME280;7200;52.194;9.900;2023-03-01T04:50:12;101409.38;;;-2.76;100.00
14232;BME280;7200;52.194;9.900;2023-03-01T04:52:38;101432.00;;;-2.69;100.00
14232;BME280;7200;52.194;9.900;2023-03-01T04:55:04;101457.44;;;-2.56;100.00
14232;BME280;7200;52.194;9.900;2023-03-01T04:57:30;101458.41;;;-2.52;100.00
14232;BME280;7200;52.194;9.900;2023-03-01T04:59:55;101459.41;;;-2.47;100.00
14232;BME280;7200;52.194;9.900;2023-03-01T05:02:20;101403.59;;;-2.69;100.00
14232;BME280;7200;52.194;9.900;2023-03-01T05:04:46;101404.22;;;-2.76;100.00
14232;BME280;7200;52.194;9.900;2023-03-01T05:07:11;101452.94;;;-2.61;100.00
14232;BME280;7200;52.194;9.900;2023-03-01T05:09:38;101475.66;;;-2.51;100.00
14232;BME280;7200;52.194;9.900;2023-03-01T05:12:03;101496.75;;;-2.39;100.00
14232;BME280;7200;52.194;9.900;2023-03-01T05:14:29;101445.53;;;-2.50;100.00
14232;BME280;7200;52.194;9.900;2023-03-01T05:16:54;101458.53;;;-2.47;100.00
14232;BME280;7200;52.194;9.900;2023-03-01T05:19:19;101483.09;;;-2.35;100.00
14232;BME280;7200;52.194;9.900;2023-03-01T05:21:48;101449.06;;;-2.48;100.00
14232;BME280;7200;52.194;9.900;2023-03-01T05:24:33;101442.00;;;-2.52;100.00
14232;BME280;7200;52.194;9.900;2023-03-01T05:26:59;101444.69;;;-2.49;100.00
14232;BME280;7200;52.194;9.900;2023-03-01T05:29:26;101409.75;;;-2.65;100.00
14232;BME280;7200;52.194;9.900;2023-03-01T05:31:56;101349.16;;;-3.01;100.00
14232;BME280;7200;52.194;9.900;2023-03-01T05:34:33;101410.72;;;-2.87;100.00
14232;BME280;7200;52.194;9.900;2023-03-01T05:37:00;101399.97;;;-3.00;100.00
14232;BME280;7200;52.194;9.900;2023-03-01T05:39:27;101449.28;;;-2.92;100.00
14232;BME280;7200;52.194;9.900;2023-03-01T05:41:57;101484.34;;;-2.75;100.00
14232;BME280;7200;52.194;9.900;2023-03-01T05:44:23;101494.09;;;-2.66;100.00
14232;BME280;7200;52.194;9.900;2023-03-01T05:46:48;101497.50;;;-2.67;100.00
14232;BME280;7200;52.194;9.900;2023-03-01T05:49:14;101515.00;;;-2.58;100.00
14232;BME280;7200;52.194;9.900;2023-03-01T05:51:41;101503.94;;;-2.56;100.00
14232;BME280;7200;52.194;9.900;2023-03-01T05:54:07;101501.34;;;-2.56;100.00
14232;BME280;7200;52.194;9.900;2023-03-01T05:56:33;101461.22;;;-2.70;100.00
14232;BME280;7200;52.194;9.900;2023-03-01T05:59:00;101438.41;;;-2.83;100.00
14232;BME280;7200;52.194;9.900;2023-03-01T06:01:25;101463.69;;;-2.75;100.00
14232;BME280;7200;52.194;9.900;2023-03-01T06:03:50;101476.72;;;-2.70;100.00
14232;BME280;7200;52.194;9.900;2023-03-01T06:06:16;101470.50;;;-2.77;100.00
14232;BME280;7200;52.194;9.900;2023-03-01T06:08:41;101414.47;;;-3.03;100.00
14232;BME280;7200;52.194;9.900;2023-03-01T06:11:06;101472.50;;;-2.94;100.00
14232;BME280;7200;52.194;9.900;2023-03-01T06:13:32;101515.53;;;-2.68;100.00
14232;BME280;7200;52.194;9.900;2023-03-01T06:15:58;101473.94;;;-2.76;100.00
14232;BME280;7200;52.194;9.900;2023-03-01T06:18:23;101480.91;;;-2.74;100.00
14232;BME280;7200;52.194;9.900;2023-03-01T06:20:55;101462.56;;;-2.81;100.00
14232;BME280;7200;52.194;9.900;2023-03-01T06:23:22;101443.19;;;-2.94;100.00
14232;BME280;7200;52.194;9.900;2023-03-01T06:25:47;101458.91;;;-2.88;100.00
14232;BME280;7200;52.194;9.900;2023-03-01T06:28:12;101509.06;;;-2.81;100.00
14232;BME280;7200;52.194;9.900;2023-03-01T06:30:38;101535.34;;;-2.69;100.00
14232;BME280;7200;52.194;9.900;2023-03-01T06:33:03;101493.50;;;-2.83;100.00
14232;BME280;7200;52.194;9.900;2023-03-01T06:35:29;101497.53;;;-2.91;100.00
14232;BME280;7200;52.194;9.900;2023-03-01T06:37:55;101558.41;;;-2.74;100.00
14232;BME280;7200;52.194;9.900;2023-03-01T06:40:21;101591.97;;;-2.49;100.00
14232;BME280;7200;52.194;9.900;2023-03-01T06:42:50;101598.88;;;-2.24;100.00
14232;BME280;7200;52.194;9.900;2023-03-01T06:45:16;101573.75;;;-2.28;100.00
14232;BME280;7200;52.194;9.900;2023-03-01T06:47:42;101547.81;;;-2.31;100.00
14232;BME280;7200;52.194;9.900;2023-03-01T06:50:08;101553.03;;;-2.30;100.00
14232;BME280;7200;52.194;9.900;2023-03-01T06:52:34;101563.66;;;-2.21;100.00
14232;BME280;7200;52.194;9.900;2023-03-01T06:54:59;101546.50;;;-2.19;100.00
14232;BME280;7200;52.194;9.900;2023-03-01T06:57:25;101556.28;;;-2.10;100.00
14232;BME280;7200;52.194;9.900;2023-03-01T06:59:51;101560.84;;;-2.03;100.00
14232;BME280;7200;52.194;9.900;2023-03-01T07:02:16;101585.72;;;-1.79;100.00
14232;BME280;7200;52.194;9.900;2023-03-01T07:04:42;101567.88;;;-1.71;100.00
14232;BME280;7200;52.194;9.900;2023-03-01T07:07:07;101564.56;;;-1.67;100.00
14232;BME280;7200;52.194;9.900;2023-03-01T07:09:33;101585.81;;;-1.50;100.00
14232;BME280;7200;52.194;9.900;2023-03-01T07:11:58;101579.03;;;-1.45;100.00
14232;BME280;7200;52.194;9.900;2023-03-01T07:14:24;101588.34;;;-1.23;100.00
14232;BME280;7200;52.194;9.900;2023-03-01T07:16:55;101591.22;;;-1.14;100.00
14232;BME280;7200;52.194;9.900;2023-03-01T07:19:21;101551.25;;;-1.24;100.00
14232;BME280;7200;52.194;9.900;2023-03-01T07:21:46;101536.53;;;-1.25;100.00
14232;BME280;7200;52.194;9.900;2023-03-01T07:24:12;101568.19;;;-1.05;100.00
14232;BME280;7200;52.194;9.900;2023-03-01T07:26:37;101547.38;;;-1.08;100.00
14232;BME280;7200;52.194;9.900;2023-03-01T07:29:05;101570.09;;;-0.99;100.00
14232;BME280;7200;52.194;9.900;2023-03-01T07:31:30;101560.75;;;-0.92;100.00
14232;BME280;7200;52.194;9.900;2023-03-01T07:33:56;101539.97;;;-0.95;100.00
14232;BME280;7200;52.194;9.900;2023-03-01T07:36:21;101576.78;;;-0.77;100.00
14232;BME280;7200;52.194;9.900;2023-03-01T07:38:47;101564.69;;;-0.76;100.00
14232;BME280;7200;52.194;9.900;2023-03-01T07:41:12;101556.19;;;-0.71;100.00
14232;BME280;7200;52.194;9.900;2023-03-01T07:43:38;101565.91;;;-0.64;100.00
14232;BME280;7200;52.194;9.900;2023-03-01T07:46:03;101598.72;;;-0.32;100.00
14232;BME280;7200;52.194;9.900;2023-03-01T07:48:30;101583.63;;;-0.14;100.00
14232;BME280;7200;52.194;9.900;2023-03-01T07:51:03;101604.06;;;0.07;100.00
14232;BME280;7200;52.194;9.900;2023-03-01T07:53:29;101599.97;;;0.17;100.00
14232;BME280;7200;52.194;9.900;2023-03-01T07:56:04;101594.09;;;0.24;100.00
14232;BME280;7200;52.194;9.900;2023-03-01T07:58:29;101606.53;;;0.37;100.00
14232;BME280;7200;52.194;9.900;2023-03-01T08:00:54;101603.28;;;0.46;100.00
14232;BME280;7200;52.194;9.900;2023-03-01T08:03:20;101604.47;;;0.59;100.00
14232;BME280;7200;52.194;9.900;2023-03-01T08:05:45;101594.88;;;0.56;100.00
14232;BME280;7200;52.194;9.900;2023-03-01T08:08:10;101593.22;;;0.58;100.00
14232;BME280;7200;52.194;9.900;2023-03-01T08:10:36;101588.03;;;0.58;100.00
14232;BME280;7200;52.194;9.900;2023-03-01T08:13:01;101605.84;;;0.81;100.00
14232;BME280;7200;52.194;9.900;2023-03-01T08:15:26;101549.22;;;0.66;100.00
14232;BME280;7200;52.194;9.900;2023-03-01T08:17:51;101590.31;;;0.84;100.00
14232;BME280;7200;52.194;9.900;2023-03-01T08:20:17;101593.09;;;0.93;100.00
14232;BME280;7200;52.194;9.900;2023-03-01T08:22:42;101580.06;;;0.92;100.00
14232;BME280;7200;52.194;9.900;2023-03-01T08:25:08;101618.75;;;1.17;100.00
14232;BME280;7200;52.194;9.900;2023-03-01T08:27:33;101618.81;;;1.21;100.00
14232;BME280;7200;52.194;9.900;2023-03-01T08:29:58;101632.13;;;1.36;100.00
14232;BME280;7200;52.194;9.900;2023-03-01T08:32:24;101585.03;;;1.21;100.00
14232;BME280;7200;52.194;9.900;2023-03-01T08:34:49;101624.31;;;1.34;100.00
14232;BME280;7200;52.194;9.900;2023-03-01T08:37:14;101574.28;;;1.05;100.00
14232;BME280;7200;52.194;9.900;2023-03-01T08:39:40;101627.44;;;1.20;100.00
14232;BME280;7200;52.194;9.900;2023-03-01T08:42:05;101665.22;;;1.43;100.00
14232;BME280;7200;52.194;9.900;2023-03-01T08:44:30;101608.78;;;1.38;100.00
14232;BME280;7200;52.194;9.900;2023-03-01T08:46:55;101673.53;;;1.69;100.00
14232;BME280;7200;52.194;9.900;2023-03-01T08:49:22;101663.41;;;1.83;100.00
14232;BME280;7200;52.194;9.900;2023-03-01T08:51:49;101669.06;;;2.06;100.00
14232;BME280;7200;52.194;9.900;2023-03-01T08:54:17;101638.75;;;2.10;100.00
14232;BME280;7200;52.194;9.900;2023-03-01T08:56:43;101614.44;;;2.09;100.00
14232;BME280;7200;52.194;9.900;2023-03-01T08:59:10;101615.44;;;2.18;100.00
14232;BME280;7200;52.194;9.900;2023-03-01T09:01:36;101636.78;;;2.48;100.00
14232;BME280;7200;52.194;9.900;2023-03-01T09:04:02;101579.31;;;2.39;100.00
14232;BME280;7200;52.194;9.900;2023-03-01T09:06:30;101600.34;;;2.50;100.00
14232;BME280;7200;52.194;9.900;2023-03-01T09:08:56;101606.63;;;2.63;100.00
14232;BME280;7200;52.194;9.900;2023-03-01T09:11:21;101592.81;;;2.68;100.00
14232;BME280;7200;52.194;9.900;2023-03-01T09:13:48;101589.44;;;2.76;100.00
14232;BME280;7200;52.194;9.900;2023-03-01T09:16:15;101544.16;;;2.66;100.00
14232;BME280;7200;52.194;9.900;2023-03-01T09:18:43;101518.78;;;2.54;100.00
14232;BME280;7200;52.194;9.900;2023-03-01T09:21:13;101536.38;;;2.70;100.00
14232;BME280;7200;52.194;9.900;2023-03-01T09:23:41;101551.28;;;2.79;100.00
14232;BME280;7200;52.194;9.900;2023-03-01T09:26:13;101588.81;;;2.92;100.00
14232;BME280;7200;52.194;9.900;2023-03-01T09:28:39;101570.56;;;2.93;100.00
14232;BME280;7200;52.194;9.900;2023-03-01T09:31:06;101539.97;;;2.80;100.00
14232;BME280;7200;52.194;9.900;2023-03-01T09:33:32;101576.78;;;3.02;100.00
14232;BME280;7200;52.194;9.900;2023-03-01T09:36:06;101609.25;;;3.27;100.00
14232;BME280;7200;52.194;9.900;2023-03-01T09:38:32;101607.69;;;3.41;100.00
14232;BME280;7200;52.194;9.900;2023-03-01T09:40:59;101614.00;;;3.63;100.00
14232;BME280;7200;52.194;9.900;2023-03-01T09:46:08;101559.03;;;3.48;100.00
14232;BME280;7200;52.194;9.900;2023-03-01T09:48:42;101520.69;;;3.38;100.00
14232;BME280;7200;52.194;9.900;2023-03-01T09:51:13;101511.09;;;3.37;100.00
14232;BME280;7200;52.194;9.900;2023-03-01T09:53:41;101469.22;;;3.23;100.00
14232;BME280;7200;52.194;9.900;2023-03-01T09:56:30;101475.38;;;3.26;100.00
14232;BME280;7200;52.194;9.900;2023-03-01T10:01:35;101498.16;;;3.47;100.00
14232;BME280;7200;52.194;9.900;2023-03-01T10:04:20;101495.66;;;3.57;100.00
14232;BME280;7200;52.194;9.900;2023-03-01T10:07:22;101541.09;;;3.80;100.00
14232;BME280;7200;52.194;9.900;2023-03-01T10:09:52;101514.94;;;3.73;100.00
14232;BME280;7200;52.194;9.900;2023-03-01T10:12:21;101516.72;;;3.75;100.00
14232;BME280;7200;52.194;9.900;2023-03-01T10:17:39;101554.50;;;4.20;100.00
14232;BME280;7200;52.194;9.900;2023-03-01T10:22:44;101560.75;;;4.39;100.00
14232;BME280;7200;52.194;9.900;2023-03-01T10:25:17;101503.22;;;4.32;100.00
14232;BME280;7200;52.194;9.900;2023-03-01T10:27:52;101492.00;;;4.46;100.00
14232;BME280;7200;52.194;9.900;2023-03-01T10:32:47;101405.88;;;4.77;100.00
14232;BME280;7200;52.194;9.900;2023-03-01T10:35:24;101377.97;;;4.84;100.00
14232;BME280;7200;52.194;9.900;2023-03-01T10:38:12;101306.47;;;4.57;100.00
14232;BME280;7200;52.194;9.900;2023-03-01T10:41:05;101324.78;;;4.62;100.00
14232;BME280;7200;52.194;9.900;2023-03-01T10:43:47;101324.78;;;4.62;100.00
14232;BME280;7200;52.194;9.900;2023-03-01T10:46:33;101344.78;;;4.54;100.00
14232;BME280;7200;52.194;9.900;2023-03-01T10:49:17;101389.28;;;4.67;100.00
14232;BME280;7200;52.194;9.900;2023-03-01T10:51:45;101420.72;;;4.91;100.00
14232;BME280;7200;52.194;9.900;2023-03-01T10:54:19;101354.47;;;5.02;100.00
14232;BME280;7200;52.194;9.900;2023-03-01T10:56:53;101357.16;;;5.25;99.02
14232;BME280;7200;52.194;9.900;2023-03-01T10:59:28;101344.91;;;5.06;97.83
14232;BME280;7200;52.194;9.900;2023-03-01T11:02:16;101298.69;;;5.36;94.27
14232;BME280;7200;52.194;9.900;2023-03-01T11:07:26;101259.47;;;5.00;96.37
14232;BME280;7200;52.194;9.900;2023-03-01T11:09:51;101352.75;;;5.29;97.72
14232;BME280;7200;52.194;9.900;2023-03-01T11:12:17;101378.06;;;5.41;97.91
14232;BME280;7200;52.194;9.900;2023-03-01T11:15:00;101327.44;;;5.68;94.29
14232;BME280;7200;52.194;9.900;2023-03-01T11:17:29;101230.66;;;5.36;93.19
14232;BME280;7200;52.194;9.900;2023-03-01T11:22:53;101259.38;;;5.57;92.03
14232;BME280;7200;52.194;9.900;2023-03-01T11:25:23;101237.59;;;5.61;91.53
14232;BME280;7200;52.194;9.900;2023-03-01T11:27:49;101242.75;;;5.72;90.14
14232;BME280;7200;52.194;9.900;2023-03-01T11:30:24;101182.66;;;5.38;91.07
14232;BME280;7200;52.194;9.900;2023-03-01T11:35:42;101342.25;;;5.83;92.95
14232;BME280;7200;52.194;9.900;2023-03-01T11:38:21;101266.34;;;5.68;92.20
14232;BME280;7200;52.194;9.900;2023-03-01T11:40:52;101206.09;;;5.71;89.83
14232;BME280;7200;52.194;9.900;2023-03-01T11:43:52;101177.22;;;5.91;86.18
14232;BME280;7200;52.194;9.900;2023-03-01T11:46:31;101153.59;;;6.04;84.17
14232;BME280;7200;52.194;9.900;2023-03-01T11:54:44;101288.00;;;6.16;88.73
14232;BME280;7200;52.194;9.900;2023-03-01T12:05:51;101259.09;;;6.33;88.32
14232;BME280;7200;52.194;9.900;2023-03-01T12:11:11;101210.91;;;6.57;83.74
14232;BME280;7200;52.194;9.900;2023-03-01T12:14:02;101158.59;;;6.45;82.78
14232;BME280;7200;52.194;9.900;2023-03-01T12:22:29;101149.09;;;6.25;83.06
14232;BME280;7200;52.194;9.900;2023-03-01T12:25:31;101195.28;;;6.43;84.34
14232;BME280;7200;52.194;9.900;2023-03-01T12:36:21;101184.53;;;6.77;82.10
14232;BME280;7200;52.194;9.900;2023-03-01T12:44:20;101127.69;;;6.80;80.79
14232;BME280;7200;52.194;9.900;2023-03-01T12:47:28;101126.66;;;6.95;79.65
14232;BME280;7200;52.194;9.900;2023-03-01T12:50:17;101086.31;;;7.04;77.09
14232;BME280;7200;52.194;9.900;2023-03-01T12:55:41;101168.50;;;7.06;80.58
14232;BME280;7200;52.194;9.900;2023-03-01T13:03:48;101133.47;;;7.12;80.23
14232;BME280;7200;52.194;9.900;2023-03-01T13:06:25;101037.09;;;7.23;75.57
14232;BME280;7200;52.194;9.900;2023-03-01T13:11:25;101025.31;;;6.85;77.37
14232;BME280;7200;52.194;9.900;2023-03-01T13:13:51;101076.91;;;6.86;79.41
14232;BME280;7200;52.194;9.900;2023-03-01T13:16:22;101055.75;;;7.00;76.88
14232;BME280;7200;52.194;9.900;2023-03-01T13:19:16;101130.00;;;7.08;79.06
14232;BME280;7200;52.194;9.900;2023-03-01T13:21:43;101142.91;;;7.28;78.78
14232;BME280;7200;52.194;9.900;2023-03-01T13:24:41;101009.88;;;7.32;73.13
14232;BME280;7200;52.194;9.900;2023-03-01T13:34:51;101060.66;;;7.29;75.88
14232;BME280;7200;52.194;9.900;2023-03-01T13:37:23;101068.53;;;7.29;75.98
14232;BME280;7200;52.194;9.900;2023-03-01T13:39:52;101111.22;;;7.44;76.75
14232;BME280;7200;52.194;9.900;2023-03-01T13:42:36;100996.53;;;7.47;72.49
14232;BME280;7200;52.194;9.900;2023-03-01T13:45:04;101077.06;;;7.45;75.52
14232;BME280;7200;52.194;9.900;2023-03-01T13:47:32;101062.16;;;7.49;75.48
14232;BME280;7200;52.194;9.900;2023-03-01T13:50:03;101078.84;;;7.43;77.51
14232;BME280;7200;52.194;9.900;2023-03-01T13:52:49;101092.78;;;7.50;77.73
14232;BME280;7200;52.194;9.900;2023-03-01T13:55:21;101041.19;;;7.46;75.98
14232;BME280;7200;52.194;9.900;2023-03-01T13:57:51;101024.59;;;7.44;74.65
14232;BME280;7200;52.194;9.900;2023-03-01T14:00:36;101014.63;;;7.69;72.12
14232;BME280;7200;52.194;9.900;2023-03-01T14:03:20;100942.25;;;7.49;70.81
14232;BME280;7200;52.194;9.900;2023-03-01T14:08:26;101011.41;;;7.48;73.79
14232;BME280;7200;52.194;9.900;2023-03-01T14:16:42;100845.22;;;7.41;67.64
14232;BME280;7200;52.194;9.900;2023-03-01T14:19:29;100884.06;;;7.19;71.31
14232;BME280;7200;52.194;9.900;2023-03-01T14:22:24;100971.34;;;7.34;72.41
14232;BME280;7200;52.194;9.900;2023-03-01T14:24:56;100931.81;;;7.45;70.19
14232;BME280;7200;52.194;9.900;2023-03-01T14:27:26;100959.19;;;7.28;72.68
14232;BME280;7200;52.194;9.900;2023-03-01T14:29:58;100971.56;;;7.18;73.70
14232;BME280;7200;52.194;9.900;2023-03-01T14:32:26;101013.44;;;7.28;75.47
14232;BME280;7200;52.194;9.900;2023-03-01T14:34:53;101078.81;;;7.46;76.68
14232;BME280;7200;52.194;9.900;2023-03-01T14:39:47;100979.66;;;7.64;71.79
14232;BME280;7200;52.194;9.900;2023-03-01T14:42:13;100929.75;;;7.65;69.64